sensor_id;sensor_type;location;lat;lon;timestamp;pressure;altitude;pressure_sealevel;temperature;humidity
68508;BME280;55510;49.560;19.090;2023-05-22T00:01:14;96577.72;;;8.07;100.00
68508;BME280;55510;49.560;19.090;2023-05-22T00:04:18;96572.66;;;8.06;100.00
68508;BME280;55510;49.560;19.090;2023-05-22T00:07:20;96579.78;;;8.05;100.00
68508;BME280;55510;49.560;19.090;2023-05-22T00:10:22;96573.69;;;8.05;100.00
68508;BME280;55510;49.560;19.090;2023-05-22T00:13:23;96583.69;;;8.03;100.00
68508;BME280;55510;49.560;19.090;2023-05-22T00:16:23;96575.59;;;7.97;100.00
68508;BME280;55510;49.560;19.090;2023-05-22T00:19:24;96572.78;;;7.92;100.00
68508;BME280;55510;49.560;19.090;2023-05-22T00:22:25;96573.09;;;7.84;100.00
68508;BME280;55510;49.560;19.090;2023-05-22T00:25:27;96578.63;;;7.82;100.00
68508;BME280;55510;49.560;19.090;2023-05-22T00:28:28;96580.44;;;7.82;100.00
68508;BME280;55510;49.560;19.090;2023-05-22T00:31:29;96582.38;;;7.75;100.00
68508;BME280;55510;49.560;19.090;2023-05-22T00:34:29;96575.00;;;7.58;100.00
68508;BME280;55510;49.560;19.090;2023-05-22T00:37:30;96573.81;;;7.54;100.00
68508;BME280;55510;49.560;19.090;2023-05-22T00:40:31;96575.25;;;7.50;100.00
68508;BME280;55510;49.560;19.090;2023-05-22T00:43:32;96570.41;;;7.47;100.00
68508;BME280;55510;49.560;19.090;2023-05-22T00:46:33;96574.69;;;7.48;100.00
68508;BME280;55510;49.560;19.090;2023-05-22T00:49:34;96561.88;;;7.45;100.00
68508;BME280;55510;49.560;19.090;2023-05-22T00:52:36;96559.22;;;7.45;100.00
68508;BME280;55510;49.560;19.090;2023-05-22T00:55:38;96568.00;;;7.45;100.00
68508;BME280;55510;49.560;19.090;2023-05-22T00:58:39;96563.34;;;7.40;100.00
68508;BME280;55510;49.560;19.090;2023-05-22T01:01:40;96561.97;;;7.38;100.00
68508;BME280;55510;49.560;19.090;2023-05-22T01:04:45;96566.28;;;7.32;100.00
68508;BME280;55510;49.560;19.090;2023-05-22T01:07:48;96562.44;;;7.28;100.00
68508;BME280;55510;49.560;19.090;2023-05-22T01:10:55;96571.03;;;7.23;100.00
68508;BME280;55510;49.560;19.090;2023-05-22T01:14:05;96559.69;;;7.16;100.00
68508;BME280;55510;49.560;19.090;2023-05-22T01:20:36;96566.25;;;7.14;100.00
68508;BME280;55510;49.560;19.090;2023-05-22T01:24:13;96559.53;;;7.11;100.00
68508;BME280;55510;49.560;19.090;2023-05-22T01:27:29;96571.78;;;7.05;100.00
68508;BME280;55510;49.560;19.090;2023-05-22T01:33:44;96563.06;;;7.05;100.00
68508;BME280;55510;49.560;19.090;2023-05-22T01:36:47;96562.75;;;6.94;100.00
68508;BME280;55510;49.560;19.090;2023-05-22T01:39:50;96565.59;;;6.93;100.00
68508;BME280;55510;49.560;19.090;2023-05-22T01:42:51;96559.69;;;6.91;100.00
68508;BME280;55510;49.560;19.090;2023-05-22T01:45:52;96562.78;;;6.88;100.00
68508;BME280;55510;49.560;19.090;2023-05-22T01:48:53;96575.41;;;6.86;100.00
68508;BME280;55510;49.560;19.090;2023-05-22T01:52:11;96569.19;;;6.73;100.00
68508;BME280;55510;49.560;19.090;2023-05-22T01:55:33;96568.59;;;6.71;100.00
68508;BME280;55510;49.560;19.090;2023-05-22T01:58:48;96566.97;;;6.70;100.00
68508;BME280;55510;49.560;19.090;2023-05-22T02:01:53;96568.44;;;6.66;100.00
68508;BME280;55510;49.560;19.090;2023-05-22T02:04:58;96571.09;;;6.66;100.00
68508;BME280;55510;49.560;19.090;2023-05-22T02:08:00;96564.19;;;6.65;100.00
68508;BME280;55510;49.560;19.090;2023-05-22T02:11:01;96573.13;;;6.64;100.00
68508;BME280;55510;49.560;19.090;2023-05-22T02:14:02;96571.50;;;6.63;100.00
68508;BME280;55510;49.560;19.090;2023-05-22T02:17:04;96563.59;;;6.63;100.00
68508;BME280;55510;49.560;19.090;2023-05-22T02:20:10;96564.56;;;6.62;100.00
68508;BME280;55510;49.560;19.090;2023-05-22T02:23:14;96569.09;;;6.55;100.00
68508;BME280;55510;49.560;19.090;2023-05-22T02:26:15;96554.34;;;6.40;100.00
68508;BME280;55510;49.560;19.090;2023-05-22T02:29:15;96566.81;;;6.33;100.00
68508;BME280;55510;49.560;19.090;2023-05-22T02:32:16;96565.38;;;6.30;100.00
68508;BME280;55510;49.560;19.090;2023-05-22T02:35:17;96561.94;;;6.30;100.00
68508;BME280;55510;49.560;19.090;2023-05-22T02:38:17;96554.59;;;6.32;100.00
68508;BME280;55510;49.560;19.090;2023-05-22T02:41:18;96553.00;;;6.24;100.00
68508;BME280;55510;49.560;19.090;2023-05-22T02:44:19;96550.81;;;6.14;100.00
68508;BME280;55510;49.560;19.090;2023-05-22T02:47:20;96547.81;;;6.04;100.00
68508;BME280;55510;49.560;19.090;2023-05-22T02:50:20;96543.56;;;6.03;100.00
68508;BME280;55510;49.560;19.090;2023-05-22T02:53:21;96545.41;;;6.02;100.00
68508;BME280;55510;49.560;19.090;2023-05-22T02:56:21;96554.13;;;6.03;100.00
68508;BME280;55510;49.560;19.090;2023-05-22T02:59:23;96545.78;;;6.06;100.00
68508;BME280;55510;49.560;19.090;2023-05-22T03:02:24;96549.41;;;6.12;100.00
68508;BME280;55510;49.560;19.090;2023-05-22T03:05:26;96544.31;;;6.17;100.00
68508;BME280;55510;49.560;19.090;2023-05-22T03:08:26;96541.44;;;6.18;100.00
68508;BME280;55510;49.560;19.090;2023-05-22T03:11:29;96550.59;;;6.22;100.00
68508;BME280;55510;49.560;19.090;2023-05-22T03:14:30;96554.84;;;6.23;100.00
68508;BME280;55510;49.560;19.090;2023-05-22T03:17:31;96550.38;;;6.24;100.00
68508;BME280;55510;49.560;19.090;2023-05-22T03:20:31;96546.94;;;6.23;100.00
68508;BME280;55510;49.560;19.090;2023-05-22T03:23:33;96548.75;;;6.23;100.00
68508;BME280;55510;49.560;19.090;2023-05-22T03:26:33;96545.72;;;6.19;100.00
68508;BME280;55510;49.560;19.090;2023-05-22T03:29:35;96557.50;;;6.23;100.00
68508;BME280;55510;49.560;19.090;2023-05-22T03:32:36;96550.97;;;6.26;100.00
68508;BME280;55510;49.560;19.090;2023-05-22T03:35:37;96552.97;;;6.31;100.00
68508;BME280;55510;49.560;19.090;2023-05-22T03:38:38;96550.50;;;6.36;100.00
68508;BME280;55510;49.560;19.090;2023-05-22T03:41:39;96549.84;;;6.41;100.00
68508;BME280;55510;49.560;19.090;2023-05-22T03:44:39;96550.66;;;6.48;100.00
68508;BME280;55510;49.560;19.090;2023-05-22T03:47:40;96550.59;;;6.55;100.00
68508;BME280;55510;49.560;19.090;2023-05-22T03:50:40;96554.00;;;6.62;100.00
68508;BME280;55510;49.560;19.090;2023-05-22T03:53:41;96549.50;;;6.69;100.00
68508;BME280;55510;49.560;19.090;2023-05-22T03:56:42;96542.31;;;6.76;100.00
68508;BME280;55510;49.560;19.090;2023-05-22T03:59:43;96546.50;;;6.84;100.00
68508;BME280;55510;49.560;19.090;2023-05-22T04:02:43;96547.28;;;6.91;100.00
68508;BME280;55510;49.560;19.090;2023-05-22T04:05:45;96549.66;;;7.00;100.00
68508;BME280;55510;49.560;19.090;2023-05-22T04:08:47;96547.56;;;7.08;100.00
68508;BME280;55510;49.560;19.090;2023-05-22T04:11:48;96546.25;;;7.18;100.00
68508;BME280;55510;49.560;19.090;2023-05-22T04:14:48;96549.81;;;7.30;100.00
68508;BME280;55510;49.560;19.090;2023-05-22T04:17:49;96546.66;;;7.40;100.00
68508;BME280;55510;49.560;19.090;2023-05-22T04:20:50;96551.44;;;7.50;100.00
68508;BME280;55510;49.560;19.090;2023-05-22T04:23:51;96546.47;;;7.60;100.00
68508;BME280;55510;49.560;19.090;2023-05-22T04:26:51;96543.50;;;7.68;100.00
68508;BME280;55510;49.560;19.090;2023-05-22T04:29:52;96547.28;;;7.79;100.00
68508;BME280;55510;49.560;19.090;2023-05-22T04:32:53;96536.72;;;7.91;100.00
68508;BME280;55510;49.560;19.090;2023-05-22T04:35:54;96541.06;;;8.04;100.00
68508;BME280;55510;49.560;19.090;2023-05-22T04:38:54;96532.13;;;8.17;100.00
68508;BME280;55510;49.560;19.090;2023-05-22T04:41:55;96533.56;;;8.32;100.00
68508;BME280;55510;49.560;19.090;2023-05-22T04:44:55;96531.53;;;8.46;100.00
68508;BME280;55510;49.560;19.090;2023-05-22T04:47:57;96528.38;;;8.55;100.00
68508;BME280;55510;49.560;19.090;2023-05-22T04:51:03;96524.34;;;8.65;100.00
68508;BME280;55510;49.560;19.090;2023-05-22T04:54:04;96529.69;;;8.77;100.00
68508;BME280;55510;49.560;19.090;2023-05-22T04:57:05;96524.97;;;8.91;100.00
68508;BME280;55510;49.560;19.090;2023-05-22T05:00:06;96529.22;;;9.04;100.00
68508;BME280;55510;49.560;19.090;2023-05-22T05:03:07;96537.31;;;9.21;100.00
68508;BME280;55510;49.560;19.090;2023-05-22T05:06:11;96526.25;;;9.36;100.00
68508;BME280;55510;49.560;19.090;2023-05-22T05:09:14;96521.59;;;9.55;100.00
68508;BME280;55510;49.560;19.090;2023-05-22T05:12:15;96526.44;;;9.70;100.00
68508;BME280;55510;49.560;19.090;2023-05-22T05:15:15;96531.84;;;9.87;100.00
68508;BME280;55510;49.560;19.090;2023-05-22T05:18:16;96533.28;;;10.07;100.00
68508;BME280;55510;49.560;19.090;2023-05-22T05:21:18;96526.50;;;10.28;100.00
68508;BME280;55510;49.560;19.090;2023-05-22T05:24:20;96527.13;;;10.47;100.00
68508;BME280;55510;49.560;19.090;2023-05-22T05:27:21;96537.25;;;10.62;100.00
68508;BME280;55510;49.560;19.090;2023-05-22T05:30:22;96531.13;;;10.79;100.00
68508;BME280;55510;49.560;19.090;2023-05-22T05:33:23;96527.41;;;10.97;100.00
68508;BME280;55510;49.560;19.090;2023-05-22T05:36:23;96531.47;;;11.16;100.00
68508;BME280;55510;49.560;19.090;2023-05-22T05:39:24;96519.16;;;11.32;100.00
68508;BME280;55510;49.560;19.090;2023-05-22T05:42:25;96517.81;;;11.52;100.00
68508;BME280;55510;49.560;19.090;2023-05-22T05:45:25;96522.63;;;11.72;100.00
68508;BME280;55510;49.560;19.090;2023-05-22T05:48:26;96513.50;;;11.90;100.00
68508;BME280;55510;49.560;19.090;2023-05-22T05:51:27;96512.97;;;12.11;100.00
68508;BME280;55510;49.560;19.090;2023-05-22T05:54:28;96512.06;;;12.27;100.00
68508;BME280;55510;49.560;19.090;2023-05-22T05:57:30;96507.97;;;12.42;99.14
68508;BME280;55510;49.560;19.090;2023-05-22T06:00:31;96508.66;;;12.59;97.59
68508;BME280;55510;49.560;19.090;2023-05-22T06:03:31;96503.97;;;12.77;94.20
68508;BME280;55510;49.560;19.090;2023-05-22T06:06:32;96499.88;;;12.97;93.12
68508;BME280;55510;49.560;19.090;2023-05-22T06:09:35;96507.47;;;13.15;92.44
68508;BME280;55510;49.560;19.090;2023-05-22T06:12:36;96502.53;;;13.34;90.57
68508;BME280;55510;49.560;19.090;2023-05-22T06:15:37;96496.50;;;13.49;88.93
68508;BME280;55510;49.560;19.090;2023-05-22T06:18:38;96497.06;;;13.62;86.36
68508;BME280;55510;49.560;19.090;2023-05-22T06:21:39;96499.81;;;13.72;83.22
68508;BME280;55510;49.560;19.090;2023-05-22T06:24:42;96488.34;;;13.87;83.79
68508;BME280;55510;49.560;19.090;2023-05-22T06:27:42;96483.34;;;14.06;84.79
68508;BME280;55510;49.560;19.090;2023-05-22T06:30:43;96490.63;;;14.32;85.77
68508;BME280;55510;49.560;19.090;2023-05-22T06:33:44;96488.25;;;14.56;86.53
68508;BME280;55510;49.560;19.090;2023-05-22T06:36:45;96483.72;;;14.77;86.12
68508;BME280;55510;49.560;19.090;2023-05-22T06:39:45;96484.53;;;14.93;84.93
68508;BME280;55510;49.560;19.090;2023-05-22T06:42:46;96481.56;;;15.11;83.95
68508;BME280;55510;49.560;19.090;2023-05-22T06:45:46;96481.28;;;15.33;84.31
68508;BME280;55510;49.560;19.090;2023-05-22T06:48:47;96488.19;;;15.60;82.75
68508;BME280;55510;49.560;19.090;2023-05-22T06:51:48;96482.50;;;15.77;81.46
68508;BME280;55510;49.560;19.090;2023-05-22T06:54:49;96481.09;;;15.95;80.38
68508;BME280;55510;49.560;19.090;2023-05-22T06:57:49;96485.88;;;16.08;76.68
68508;BME280;55510;49.560;19.090;2023-05-22T07:00:50;96477.19;;;16.22;74.94
68508;BME280;55510;49.560;19.090;2023-05-22T07:03:51;96484.06;;;16.44;74.64
68508;BME280;55510;49.560;19.090;2023-05-22T07:06:52;96479.34;;;16.65;73.61
68508;BME280;55510;49.560;19.090;2023-05-22T07:09:52;96480.53;;;16.83;71.55
68508;BME280;55510;49.560;19.090;2023-05-22T07:12:53;96476.09;;;17.03;70.57
68508;BME280;55510;49.560;19.090;2023-05-22T07:15:54;96475.63;;;17.25;71.05
68508;BME280;55510;49.560;19.090;2023-05-22T07:18:55;96475.19;;;17.42;70.55
68508;BME280;55510;49.560;19.090;2023-05-22T07:21:55;96477.75;;;17.52;69.66
68508;BME280;55510;49.560;19.090;2023-05-22T07:24:56;96470.88;;;17.65;70.89
68508;BME280;55510;49.560;19.090;2023-05-22T07:27:56;96476.31;;;17.85;72.39
68508;BME280;55510;49.560;19.090;2023-05-22T07:30:58;96468.50;;;18.07;73.87
68508;BME280;55510;49.560;19.090;2023-05-22T07:33:58;96467.72;;;18.26;72.58
68508;BME280;55510;49.560;19.090;2023-05-22T07:37:04;96466.72;;;18.41;71.95
68508;BME280;55510;49.560;19.090;2023-05-22T07:40:06;96466.69;;;18.60;69.88
68508;BME280;55510;49.560;19.090;2023-05-22T07:43:07;96460.81;;;18.72;66.68
68508;BME280;55510;49.560;19.090;2023-05-22T07:46:08;96453.97;;;18.80;65.68
68508;BME280;55510;49.560;19.090;2023-05-22T07:49:10;96465.06;;;18.78;64.60
68508;BME280;55510;49.560;19.090;2023-05-22T07:52:10;96454.47;;;18.82;64.90
68508;BME280;55510;49.560;19.090;2023-05-22T07:55:11;96457.09;;;18.87;65.47
68508;BME280;55510;49.560;19.090;2023-05-22T07:58:12;96459.69;;;18.92;63.64
68508;BME280;55510;49.560;19.090;2023-05-22T08:01:13;96464.81;;;18.94;63.37
68508;BME280;55510;49.560;19.090;2023-05-22T08:04:14;96468.75;;;19.02;63.66
68508;BME280;55510;49.560;19.090;2023-05-22T08:07:15;96465.28;;;19.15;63.76
68508;BME280;55510;49.560;19.090;2023-05-22T08:10:17;96466.69;;;19.26;63.07
68508;BME280;55510;49.560;19.090;2023-05-22T08:13:18;96464.78;;;19.41;62.11
68508;BME280;55510;49.560;19.090;2023-05-22T08:16:19;96462.53;;;19.48;60.86
68508;BME280;55510;49.560;19.090;2023-05-22T08:19:20;96459.22;;;19.51;57.74
68508;BME280;55510;49.560;19.090;2023-05-22T08:22:20;96456.22;;;19.67;58.82
68508;BME280;55510;49.560;19.090;2023-05-22T08:25:21;96457.09;;;19.76;57.80
68508;BME280;55510;49.560;19.090;2023-05-22T08:28:22;96451.81;;;19.85;58.63
68508;BME280;55510;49.560;19.090;2023-05-22T08:31:22;96458.50;;;20.02;58.13
68508;BME280;55510;49.560;19.090;2023-05-22T08:34:23;96449.88;;;20.13;56.68
68508;BME280;55510;49.560;19.090;2023-05-22T08:37:25;96451.84;;;20.22;57.40
68508;BME280;55510;49.560;19.090;2023-05-22T08:40:33;96442.53;;;20.28;54.24
68508;BME280;55510;49.560;19.090;2023-05-22T08:43:36;96449.47;;;20.43;54.48
68508;BME280;55510;49.560;19.090;2023-05-22T08:46:36;96449.81;;;20.64;55.79
68508;BME280;55510;49.560;19.090;2023-05-22T08:49:41;96439.16;;;20.82;54.41
68508;BME280;55510;49.560;19.090;2023-05-22T08:52:49;96437.72;;;20.84;51.93
68508;BME280;55510;49.560;19.090;2023-05-22T08:55:53;96434.44;;;20.96;52.47
68508;BME280;55510;49.560;19.090;2023-05-22T08:58:55;96438.34;;;21.13;52.96
68508;BME280;55510;49.560;19.090;2023-05-22T09:01:57;96429.84;;;21.28;51.28
68508;BME280;55510;49.560;19.090;2023-05-22T09:04:57;96426.72;;;21.44;49.94
68508;BME280;55510;49.560;19.090;2023-05-22T09:08:02;96431.84;;;21.54;50.83
68508;BME280;55510;49.560;19.090;2023-05-22T09:11:03;96430.72;;;21.55;50.04
68508;BME280;55510;49.560;19.090;2023-05-22T09:14:08;96422.44;;;21.61;48.58
68508;BME280;55510;49.560;19.090;2023-05-22T09:17:10;96422.16;;;21.62;46.64
68508;BME280;55510;49.560;19.090;2023-05-22T09:20:14;96419.66;;;21.75;48.02
68508;BME280;55510;49.560;19.090;2023-05-22T09:23:15;96416.00;;;21.79;47.11
68508;BME280;55510;49.560;19.090;2023-05-22T09:26:19;96420.78;;;21.82;48.30
68508;BME280;55510;49.560;19.090;2023-05-22T09:29:20;96419.22;;;21.90;48.28
68508;BME280;55510;49.560;19.090;2023-05-22T09:32:22;96420.16;;;22.03;46.76
68508;BME280;55510;49.560;19.090;2023-05-22T09:35:24;96411.59;;;22.10;45.12
68508;BME280;55510;49.560;19.090;2023-05-22T09:38:28;96401.84;;;22.00;41.89
68508;BME280;55510;49.560;19.090;2023-05-22T09:41:34;96403.78;;;22.17;44.12
68508;BME280;55510;49.560;19.090;2023-05-22T09:44:35;96401.56;;;22.37;43.18
68508;BME280;55510;49.560;19.090;2023-05-22T09:47:36;96398.19;;;22.49;43.91
68508;BME280;55510;49.560;19.090;2023-05-22T09:50:37;96399.47;;;22.60;42.76
68508;BME280;55510;49.560;19.090;2023-05-22T09:53:40;96401.06;;;22.61;41.41
68508;BME280;55510;49.560;19.090;2023-05-22T09:56:43;96405.69;;;22.69;41.99
68508;BME280;55510;49.560;19.090;2023-05-22T09:59:49;96396.41;;;22.79;42.67
68508;BME280;55510;49.560;19.090;2023-05-22T10:02:58;96391.28;;;22.86;44.08
68508;BME280;55510;49.560;19.090;2023-05-22T10:06:03;96395.06;;;22.94;42.77
68508;BME280;55510;49.560;19.090;2023-05-22T10:09:08;96381.03;;;23.01;39.85
68508;BME280;55510;49.560;19.090;2023-05-22T10:12:14;96384.84;;;23.00;37.77
68508;BME280;55510;49.560;19.090;2023-05-22T10:15:19;96393.44;;;23.11;41.00
68508;BME280;55510;49.560;19.090;2023-05-22T10:18:20;96388.47;;;23.22;42.50
68508;BME280;55510;49.560;19.090;2023-05-22T10:21:21;96389.91;;;23.28;40.59
68508;BME280;55510;49.560;19.090;2023-05-22T10:24:23;96392.38;;;23.42;41.19
68508;BME280;55510;49.560;19.090;2023-05-22T10:27:23;96384.53;;;23.49;38.61
68508;BME280;55510;49.560;19.090;2023-05-22T10:30:46;96380.31;;;23.60;40.56
68508;BME280;55510;49.560;19.090;2023-05-22T10:34:01;96377.06;;;23.67;40.82
68508;BME280;55510;49.560;19.090;2023-05-22T10:40:29;96387.50;;;23.86;40.21
68508;BME280;55510;49.560;19.090;2023-05-22T10:43:31;96385.50;;;23.96;41.36
68508;BME280;55510;49.560;19.090;2023-05-22T10:46:32;96385.34;;;24.01;40.01
68508;BME280;55510;49.560;19.090;2023-05-22T10:49:36;96386.06;;;24.10;41.05
68508;BME280;55510;49.560;19.090;2023-05-22T10:52:38;96379.28;;;24.16;39.98
68508;BME280;55510;49.560;19.090;2023-05-22T10:55:53;96377.97;;;24.23;37.95
68508;BME280;55510;49.560;19.090;2023-05-22T10:58:56;96373.84;;;24.16;38.09
68508;BME280;55510;49.560;19.090;2023-05-22T11:01:59;96368.69;;;24.24;38.73
68508;BME280;55510;49.560;19.090;2023-05-22T11:11:25;96364.50;;;24.60;39.26
68508;BME280;55510;49.560;19.090;2023-05-22T11:14:27;96361.56;;;24.65;36.42
68508;BME280;55510;49.560;19.090;2023-05-22T11:17:30;96347.38;;;24.81;37.80
68508;BME280;55510;49.560;19.090;2023-05-22T11:20:35;96353.50;;;24.90;37.41
68508;BME280;55510;49.560;19.090;2023-05-22T11:23:36;96357.56;;;24.84;35.52
68508;BME280;55510;49.560;19.090;2023-05-22T11:26:41;96348.06;;;24.78;35.72
68508;BME280;55510;49.560;19.090;2023-05-22T11:29:42;96352.47;;;24.82;35.83
68508;BME280;55510;49.560;19.090;2023-05-22T11:32:44;96351.53;;;24.78;36.75
68508;BME280;55510;49.560;19.090;2023-05-22T11:35:46;96342.84;;;24.85;39.50
68508;BME280;55510;49.560;19.090;2023-05-22T11:38:47;96341.94;;;24.93;38.58
68508;BME280;55510;49.560;19.090;2023-05-22T11:41:48;96338.97;;;24.86;38.36
68508;BME280;55510;49.560;19.090;2023-05-22T11:44:48;96336.25;;;24.86;37.99
68508;BME280;55510;49.560;19.090;2023-05-22T11:47:49;96337.63;;;24.92;37.83
68508;BME280;55510;49.560;19.090;2023-05-22T11:50:50;96333.41;;;24.95;37.65
68508;BME280;55510;49.560;19.090;2023-05-22T11:53:51;96326.50;;;24.85;38.18
68508;BME280;55510;49.560;19.090;2023-05-22T11:56:51;96332.63;;;24.94;37.35
68508;BME280;55510;49.560;19.090;2023-05-22T11:59:52;96324.91;;;24.84;38.89
68508;BME280;55510;49.560;19.090;2023-05-22T12:02:53;96333.78;;;24.93;37.58
68508;BME280;55510;49.560;19.090;2023-05-22T12:05:55;96327.97;;;24.95;37.29
68508;BME280;55510;49.560;19.090;2023-05-22T12:08:56;96330.25;;;24.93;37.00
68508;BME280;55510;49.560;19.090;2023-05-22T12:11:56;96326.38;;;24.81;36.77
68508;BME280;55510;49.560;19.090;2023-05-22T12:14:57;96323.13;;;25.00;36.40
68508;BME280;55510;49.560;19.090;2023-05-22T12:17:58;96327.41;;;25.01;36.40
68508;BME280;55510;49.560;19.090;2023-05-22T12:20:59;96321.06;;;25.10;37.06
68508;BME280;55510;49.560;19.090;2023-05-22T12:24:04;96324.13;;;24.96;34.96
68508;BME280;55510;49.560;19.090;2023-05-22T12:27:07;96321.16;;;24.88;34.28
68508;BME280;55510;49.560;19.090;2023-05-22T12:30:11;96327.66;;;24.96;37.20
68508;BME280;55510;49.560;19.090;2023-05-22T12:33:12;96323.66;;;24.81;35.23
68508;BME280;55510;49.560;19.090;2023-05-22T12:36:14;96314.50;;;24.98;36.92
68508;BME280;55510;49.560;19.090;2023-05-22T12:39:16;96326.06;;;25.08;38.27
68508;BME280;55510;49.560;19.090;2023-05-22T12:42:17;96319.38;;;25.05;36.32
68508;BME280;55510;49.560;19.090;2023-05-22T12:45:18;96311.53;;;25.03;35.88
68508;BME280;55510;49.560;19.090;2023-05-22T12:48:19;96319.47;;;25.09;35.90
68508;BME280;55510;49.560;19.090;2023-05-22T12:51:19;96312.59;;;24.99;35.02
68508;BME280;55510;49.560;19.090;2023-05-22T12:54:20;96313.13;;;24.80;35.90
68508;BME280;55510;49.560;19.090;2023-05-22T12:57:20;96311.00;;;24.64;35.03
68508;BME280;55510;49.560;19.090;2023-05-22T13:00:22;96309.81;;;24.74;35.04
68508;BME280;55510;49.560;19.090;2023-05-22T13:03:22;96308.00;;;24.90;36.74
68508;BME280;55510;49.560;19.090;2023-05-22T13:06:23;96310.41;;;25.04;36.90
68508;BME280;55510;49.560;19.090;2023-05-22T13:09:24;96310.31;;;25.13;38.53
68508;BME280;55510;49.560;19.090;2023-05-22T13:12:25;96310.75;;;25.28;37.32
68508;BME280;55510;49.560;19.090;2023-05-22T13:15:26;96305.56;;;25.47;35.78
68508;BME280;55510;49.560;19.090;2023-05-22T13:18:29;96306.53;;;25.55;35.45
68508;BME280;55510;49.560;19.090;2023-05-22T13:21:29;96304.75;;;25.47;33.96
68508;BME280;55510;49.560;19.090;2023-05-22T13:24:31;96297.13;;;25.28;34.71
68508;BME280;55510;49.560;19.090;2023-05-22T13:27:31;96299.97;;;25.31;35.44
68508;BME280;55510;49.560;19.090;2023-05-22T13:30:32;96301.78;;;25.40;35.12
68508;BME280;55510;49.560;19.090;2023-05-22T13:33:33;96300.97;;;25.39;36.22
68508;BME280;55510;49.560;19.090;2023-05-22T13:36:34;96291.13;;;25.47;36.31
68508;BME280;55510;49.560;19.090;2023-05-22T13:39:35;96287.34;;;25.39;35.70
68508;BME280;55510;49.560;19.090;2023-05-22T13:42:36;96293.03;;;25.34;34.77
68508;BME280;55510;49.560;19.090;2023-05-22T13:45:36;96270.13;;;25.23;33.96
68508;BME280;55510;49.560;19.090;2023-05-22T13:48:37;96275.38;;;25.15;35.28
68508;BME280;55510;49.560;19.090;2023-05-22T13:51:38;96286.13;;;25.12;36.78
68508;BME280;55510;49.560;19.090;2023-05-22T13:54:39;96277.50;;;25.10;37.90
68508;BME280;55510;49.560;19.090;2023-05-22T13:57:40;96276.50;;;25.02;35.61
68508;BME280;55510;49.560;19.090;2023-05-22T14:00:40;96276.03;;;25.12;39.91
68508;BME280;55510;49.560;19.090;2023-05-22T14:03:41;96275.25;;;25.12;36.77
68508;BME280;55510;49.560;19.090;2023-05-22T14:06:42;96273.09;;;25.05;37.52
68508;BME280;55510;49.560;19.090;2023-05-22T14:09:42;96270.50;;;24.96;38.26
68508;BME280;55510;49.560;19.090;2023-05-22T14:12:43;96265.44;;;24.48;34.58
68508;BME280;55510;49.560;19.090;2023-05-22T14:15:44;96263.00;;;24.22;37.58
68508;BME280;55510;49.560;19.090;2023-05-22T14:18:46;96269.84;;;24.07;39.51
68508;BME280;55510;49.560;19.090;2023-05-22T14:21:48;96269.31;;;23.93;39.03
68508;BME280;55510;49.560;19.090;2023-05-22T14:24:49;96264.56;;;23.89;39.04
68508;BME280;55510;49.560;19.090;2023-05-22T14:27:49;96259.59;;;23.70;39.72
68508;BME280;55510;49.560;19.090;2023-05-22T14:30:50;96255.34;;;23.60;39.68
68508;BME280;55510;49.560;19.090;2023-05-22T14:33:51;96255.34;;;23.39;41.45
68508;BME280;55510;49.560;19.090;2023-05-22T14:36:51;96261.31;;;23.32;39.76
68508;BME280;55510;49.560;19.090;2023-05-22T14:39:52;96255.69;;;23.08;40.00
68508;BME280;55510;49.560;19.090;2023-05-22T14:42:53;96258.25;;;23.04;38.94
68508;BME280;55510;49.560;19.090;2023-05-22T14:45:54;96262.25;;;23.07;41.80
68508;BME280;55510;49.560;19.090;2023-05-22T14:48:56;96266.16;;;23.18;42.15
68508;BME280;55510;49.560;19.090;2023-05-22T14:51:56;96259.03;;;23.35;40.67
68508;BME280;55510;49.560;19.090;2023-05-22T14:54:57;96262.59;;;23.56;41.63
68508;BME280;55510;49.560;19.090;2023-05-22T14:57:58;96270.00;;;23.68;39.50
68508;BME280;55510;49.560;19.090;2023-05-22T15:00:59;96267.47;;;23.63;40.19
68508;BME280;55510;49.560;19.090;2023-05-22T15:04:03;96263.75;;;24.10;39.40
68508;BME280;55510;49.560;19.090;2023-05-22T15:07:04;96268.06;;;24.57;38.21
68508;BME280;55510;49.560;19.090;2023-05-22T15:10:05;96267.63;;;24.68;37.07
68508;BME280;55510;49.560;19.090;2023-05-22T15:13:06;96273.41;;;25.41;36.05
68508;BME280;55510;49.560;19.090;2023-05-22T15:16:07;96275.00;;;26.24;34.99
68508;BME280;55510;49.560;19.090;2023-05-22T15:19:08;96278.13;;;26.70;32.11
68508;BME280;55510;49.560;19.090;2023-05-22T15:22:08;96275.25;;;27.47;33.12
68508;BME280;55510;49.560;19.090;2023-05-22T15:25:11;96269.53;;;28.11;30.68
68508;BME280;55510;49.560;19.090;2023-05-22T15:28:13;96266.97;;;28.85;30.16
68508;BME280;55510;49.560;19.090;2023-05-22T15:31:14;96268.31;;;29.21;29.40
68508;BME280;55510;49.560;19.090;2023-05-22T15:34:15;96263.41;;;29.95;27.87
68508;BME280;55510;49.560;19.090;2023-05-22T15:37:16;96261.91;;;29.14;27.09
68508;BME280;55510;49.560;19.090;2023-05-22T15:40:17;96258.22;;;29.02;27.88
68508;BME280;55510;49.560;19.090;2023-05-22T15:43:22;96260.75;;;29.15;28.04
68508;BME280;55510;49.560;19.090;2023-05-22T15:46:22;96258.47;;;29.17;27.69
68508;BME280;55510;49.560;19.090;2023-05-22T15:49:23;96263.28;;;29.54;27.96
68508;BME280;55510;49.560;19.090;2023-05-22T15:52:23;96261.81;;;29.60;28.20
68508;BME280;55510;49.560;19.090;2023-05-22T15:55:24;96254.56;;;29.45;27.98
68508;BME280;55510;49.560;19.090;2023-05-22T15:58:25;96260.47;;;29.20;29.65
68508;BME280;55510;49.560;19.090;2023-05-22T16:01:28;96255.56;;;29.06;29.36
68508;BME280;55510;49.560;19.090;2023-05-22T16:04:29;96249.50;;;28.46;29.67
68508;BME280;55510;49.560;19.090;2023-05-22T16:07:30;96248.53;;;27.56;30.41